Aérodrome :
LOGIN :

S'inscrire | Disclaimer

   EN    FR    IT 

 










Légende :    VFR   VFR Marginal   IFR   IFR Intensif   IFR Très Intensif
Visi : 
Plafond : 
>= 8 km
>= 3000ft
5 à 8 km
1000 à 3000 ft
1500m à 5 km
500 à 1000 ft
800 à 1500m
200 à 500 ft
< 800m
< 200 ft
Symboles :   Orages  Brouillard  Fortes neiges  Fortes précipitations  Vent > 20 kt
SIGMETs :   Divers  Orages  Givrage  Turbulence  Onde Orograph.  Cendres Volcan.






- Altitude de l'aérodrome : 375 ft
- Code IATA : MST


EHBK - Maastricht Aachen

DERNIER METAR :
  • 290855Z AUTO 03019G30KT 340V060 9999 OVC032 05/M02 Q1027 NOSIG

METARs EXPIRÉS :
  • 290825Z AUTO 02014G25KT 340V050 9999 SCT024 SCT033 05/M01 Q1027 NOSIG
  • 290755Z AUTO 02018KT 340V050 9999 FEW025 05/M01 Q1026 NOSIG
  • 290725Z AUTO 01014KT 330V040 9999 FEW019 04/M00 Q1026 BECMG 02018G28KT
  • 290655Z AUTO 36012KT 320V030 9999 FEW019 04/00 Q1026 BECMG 02018G28KT
  • 290625Z AUTO 35009KT 310V050 9999 NCD 03/M00 Q1026 BECMG 02018G28KT

TAF TAF EHBK
Valide du 29 à 06h jusqu'au 30 à 12h UTC


290516Z 2906/3012 34008KT CAVOK
BECMG 2907/2910 02018G32KT
PROB40
TEMPO 2910/2914 3000 SHSNRAGS BKN012 SCT020CB
BECMG 2918/2920 03012G22KT
BECMG 3006/3009 36005KT



MET'MAP, la Météo Aéronautique d'un coup d'oeil ! - Copyright ORBIFLY Décembre 2007 - Disclaimer

ORBIFLY MET'MAP TEAM :

Programmation & Développement : Alexandra Zaïnal
Sur une idée originale de : Baudouin d'Aumeries
Assistance à la programmation : Marc-Olivier Méhu
Soutien technique & logistique : Manuel Goepfert

Contact : metmap@orbifly.com




SOURCES & CREDITS :

   NOAA